Aérodrome :
LOGIN :

S'inscrire | Disclaimer

   EN    FR    IT 

 










Légende :    VFR   VFR Marginal   IFR   IFR Intensif   IFR Très Intensif
Visi : 
Plafond : 
>= 8 km
>= 3000ft
5 à 8 km
1000 à 3000 ft
1500m à 5 km
500 à 1000 ft
800 à 1500m
200 à 500 ft
< 800m
< 200 ft
Symboles :   Orages  Brouillard  Fortes neiges  Fortes précipitations  Vent > 20 kt
SIGMETs :   Divers  Orages  Givrage  Turbulence  Onde Orograph.  Cendres Volcan.






- Altitude de l'aérodrome : 26 ft
- Code IATA : GLA


EGPF - Glasgow

DERNIER METAR :
  • 051350Z AUTO 10007KT 9999 -RA SCT029/// SCT040/// //////TCU 19/12 Q0998

METARs EXPIRÉS :
  • 051320Z AUTO 12012KT 9999 -RA SCT049/// //////TCU 20/11 Q0999
  • 051250Z AUTO 12014KT 9999 //////TCU 21/10 Q0999
  • 051220Z AUTO 13014KT 100V160 9999 NCD 20/10 Q0999
  • 051150Z AUTO 13014KT 9999 -RA FEW047 20/10 Q0999
  • 051120Z AUTO 14012KT 9999 NCD 19/11 Q1000

TAF TAF EGPF
Valide du 05 à 12h jusqu'au 06 à 12h UTC


051058Z 0512/0612 13010KT 9999 SCT030
TEMPO 0512/0612 6000 RA SHRA BKN014
PROB30
TEMPO 0512/0521 10015G25KT 3000 +RA RADZ BKN008
PROB40
TEMPO 0521/0612 2500 +TSRAGS BKN006 BKN015CB
ATIS : +44 141 887 7449



MET'MAP, la Météo Aéronautique d'un coup d'oeil ! - Copyright ORBIFLY Décembre 2007 - Disclaimer

ORBIFLY MET'MAP TEAM :

Programmation & Développement : Alexandra Zaïnal
Sur une idée originale de : Baudouin d'Aumeries
Assistance à la programmation : Marc-Olivier Méhu
Soutien technique & logistique : Manuel Goepfert

Contact : metmap@orbifly.com




SOURCES & CREDITS :

   NOAA